createdAt,value
2022-09-09T00:02:43.382Z,5.92
2022-09-09T00:06:30.622Z,6.12
2022-09-09T00:09:39.488Z,6.40
2022-09-09T00:13:04.531Z,6.03
2022-09-09T00:16:27.231Z,5.42
2022-09-09T00:19:50.709Z,5.92
2022-09-09T00:23:00.429Z,6.05
2022-09-09T00:26:26.575Z,6.12
2022-09-09T00:29:51.529Z,6.62
2022-09-09T00:32:57.108Z,6.40
2022-09-09T00:36:16.061Z,6.28
2022-09-09T00:39:24.606Z,6.62
2022-09-09T00:42:44.329Z,6.70
2022-09-09T00:46:18.727Z,6.30
2022-09-09T00:49:59.306Z,6.97
2022-09-09T00:53:30.609Z,6.10
2022-09-09T00:56:38.810Z,5.97
2022-09-09T01:00:11.422Z,6.60
2022-09-09T01:03:53.764Z,5.85
2022-09-09T01:07:00.199Z,6.10
2022-09-09T01:10:18.248Z,5.87
2022-09-09T01:13:29.043Z,6.08
2022-09-09T01:16:37.667Z,6.20
2022-09-09T01:20:21.173Z,5.58
2022-09-09T01:23:54.754Z,5.80
2022-09-09T01:27:07.392Z,5.80
2022-09-09T01:30:13.202Z,5.90
2022-09-09T01:33:18.983Z,5.80
2022-09-09T01:36:37.727Z,5.85
2022-09-09T01:39:43.537Z,4.85
2022-09-09T01:42:49.913Z,4.95
2022-09-09T01:45:55.828Z,4.97
2022-09-09T01:49:02.845Z,5.65
2022-09-09T01:52:11.668Z,5.58
2022-09-09T01:55:18.100Z,5.85
2022-09-09T01:58:52.168Z,6.25
2022-09-09T02:02:21.363Z,6.15
2022-09-09T02:05:53.258Z,5.47
2022-09-09T02:09:04.923Z,6.65
2022-09-09T02:12:28.309Z,6.67
2022-09-09T02:15:53.103Z,6.47
2022-09-09T02:19:06.736Z,6.40
2022-09-09T02:22:15.522Z,6.67
2022-09-09T02:25:24.063Z,6.60
2022-09-09T02:28:31.827Z,6.35
2022-09-09T02:31:38.847Z,7.12
2022-09-09T02:34:47.903Z,7.03
2022-09-09T02:37:55.527Z,7.15
2022-09-09T02:41:01.313Z,6.17
2022-09-09T02:44:00.242Z,6.37
2022-09-09T02:47:23.227Z,6.92
2022-09-09T02:50:35.998Z,6.95
2022-09-09T02:53:46.679Z,6.42
2022-09-09T02:56:58.309Z,6.20
2022-09-09T03:00:06.769Z,6.42
2022-09-09T03:03:12.331Z,6.45
2022-09-09T03:06:21.135Z,6.87
2022-09-09T03:09:27.919Z,6.83
2022-09-09T03:12:34.328Z,6.53
2022-09-09T03:15:40.753Z,6.28
2022-09-09T03:18:47.610Z,7.37
2022-09-09T03:21:53.297Z,6.90
2022-09-09T03:25:02.016Z,6.75
2022-09-09T03:28:01.889Z,6.60
2022-09-09T03:31:08.258Z,6.65
2022-09-09T03:34:14.673Z,6.15
2022-09-09T03:37:19.723Z,5.80
2022-09-09T03:40:20.638Z,6.47
2022-09-09T03:46:37.553Z,6.40
2022-09-09T03:49:44.122Z,6.90
2022-09-09T03:52:56.491Z,7.40
2022-09-09T03:56:07.802Z,7.83
2022-09-09T03:59:13.785Z,7.65
2022-09-09T04:02:19.453Z,7.55
2022-09-09T04:05:25.961Z,8.65
2022-09-09T04:08:33.436Z,8.83
2022-09-09T04:11:33.683Z,8.38
2022-09-09T04:14:40.953Z,7.40
2022-09-09T04:17:47.130Z,7.75
2022-09-09T04:20:53.187Z,7.03
2022-09-09T04:23:59.321Z,7.78
2022-09-09T04:27:05.441Z,8.10
2022-09-09T04:30:11.912Z,8.33
2022-09-09T04:33:17.947Z,7.62
2022-09-09T04:36:24.025Z,7.90
2022-09-09T04:39:31.270Z,8.33
2022-09-09T04:42:37.896Z,8.28
2022-09-09T04:45:45.581Z,6.85
2022-09-09T04:48:54.334Z,8.67
2022-09-09T04:52:02.333Z,7.95
2022-09-09T04:55:09.652Z,8.50
2022-09-09T04:58:21.701Z,8.23
2022-09-09T05:01:36.311Z,6.97
2022-09-09T05:04:44.190Z,7.50
2022-09-09T05:07:49.789Z,7.83
2022-09-09T05:10:58.257Z,7.05
2022-09-09T05:14:06.086Z,6.67
2022-09-09T05:17:11.855Z,5.97
2022-09-09T05:20:18.550Z,5.78
2022-09-09T05:23:26.264Z,6.70
2022-09-09T05:26:28.021Z,6.00
2022-09-09T05:29:20.948Z,5.78
2022-09-09T05:32:27.384Z,5.70
2022-09-09T05:35:33.108Z,5.83
2022-09-09T05:38:40.938Z,4.53
2022-09-09T05:41:46.195Z,4.42
2022-09-09T05:44:50.619Z,3.52
2022-09-09T05:47:40.216Z,4.12
2022-09-09T05:50:32.850Z,4.62
2022-09-09T05:53:18.739Z,4.72
2022-09-09T05:56:18.622Z,4.35
2022-09-09T05:59:14.103Z,3.85
2022-09-09T06:02:21.344Z,3.87
2022-09-09T06:05:30.595Z,3.60
2022-09-09T06:08:35.953Z,4.07
2022-09-09T06:11:44.845Z,4.85
2022-09-09T06:14:51.780Z,4.60
2022-09-09T06:18:01.271Z,4.00
2022-09-09T06:24:47.746Z,4.15
2022-09-09T06:27:56.763Z,3.35
2022-09-09T06:31:05.417Z,3.20
2022-09-09T06:34:14.095Z,3.20
2022-09-09T06:37:24.460Z,3.40
2022-09-09T06:40:32.968Z,2.92
2022-09-09T06:43:43.122Z,3.85
2022-09-09T06:46:48.131Z,3.85
2022-09-09T06:49:53.042Z,3.80
2022-09-09T06:53:02.560Z,3.47
2022-09-09T06:56:11.324Z,3.40
2022-09-09T06:59:20.676Z,3.30
2022-09-09T07:02:27.650Z,3.47
2022-09-09T07:05:34.015Z,3.47
2022-09-09T07:08:40.918Z,3.42
2022-09-09T07:11:51.539Z,3.22
2022-09-09T07:14:58.666Z,3.50
2022-09-09T07:18:08.750Z,3.95
2022-09-09T07:21:15.938Z,3.50
2022-09-09T07:24:24.267Z,3.72
2022-09-09T07:27:33.504Z,3.17
2022-09-09T07:30:46.210Z,4.00
2022-09-09T07:33:55.859Z,3.33
2022-09-09T07:36:57.787Z,3.30
2022-09-09T07:39:44.524Z,3.85
2022-09-09T07:42:36.680Z,3.20
2022-09-09T07:45:43.448Z,3.45
2022-09-09T07:48:48.979Z,3.35
2022-09-09T07:52:01.933Z,3.87
2022-09-09T07:55:11.478Z,3.35
2022-09-09T07:58:17.228Z,3.22
2022-09-09T08:01:28.197Z,3.12
2022-09-09T08:04:29.204Z,3.40
2022-09-09T08:07:36.828Z,3.25
2022-09-09T08:10:43.348Z,2.87
2022-09-09T08:13:53.983Z,3.25
2022-09-09T08:17:05.259Z,3.65
2022-09-09T08:20:13.329Z,4.17
2022-09-09T08:23:19.565Z,3.17
2022-09-09T08:26:33.057Z,4.05
2022-09-09T08:29:38.177Z,4.20
2022-09-09T08:32:45.947Z,4.12
2022-09-09T08:35:51.510Z,4.53
2022-09-09T08:38:59.416Z,4.00
2022-09-09T08:42:54.477Z,4.00
2022-09-09T08:46:33.582Z,3.70
2022-09-09T08:50:06.332Z,4.00
2022-09-09T08:53:24.684Z,4.22
2022-09-09T08:56:37.773Z,4.50
2022-09-09T08:59:47.130Z,4.28
2022-09-09T09:03:31.954Z,3.70
2022-09-09T09:07:09.099Z,3.83
2022-09-09T09:10:42.237Z,4.22
2022-09-09T09:17:17.468Z,4.17
2022-09-09T09:20:30.358Z,4.28
2022-09-09T09:23:41.387Z,3.83
2022-09-09T09:26:49.565Z,4.60
2022-09-09T09:30:23.870Z,4.20
2022-09-09T09:33:15.178Z,5.05
2022-09-09T09:36:23.056Z,4.50
2022-09-09T09:43:16.494Z,4.45
2022-09-09T09:46:30.861Z,4.30
2022-09-09T09:49:37.704Z,4.20
2022-09-09T09:52:44.878Z,4.05
2022-09-09T09:55:49.928Z,4.45
2022-09-09T09:59:13.310Z,3.98
2022-09-09T10:02:37.381Z,3.90
2022-09-09T10:05:46.695Z,3.58
2022-09-09T10:08:57.144Z,3.52
2022-09-09T10:12:23.334Z,4.70
2022-09-09T10:15:31.480Z,4.12
2022-09-09T10:18:56.047Z,3.80
2022-09-09T10:22:11.259Z,4.15
2022-09-09T10:25:40.910Z,4.40
2022-09-09T10:29:07.800Z,4.20
2022-09-09T10:33:01.108Z,3.45
2022-09-09T10:36:19.296Z,4.10
2022-09-09T10:39:49.182Z,3.52
2022-09-09T10:42:54.985Z,4.33
2022-09-09T10:46:06.477Z,4.37
2022-09-09T10:49:31.649Z,4.17
2022-09-09T10:53:06.962Z,3.67
2022-09-09T10:56:16.557Z,3.95
2022-09-09T10:59:25.302Z,4.25
2022-09-09T11:02:23.656Z,3.60
2022-09-09T11:05:41.328Z,4.37
2022-09-09T11:08:36.669Z,3.20
2022-09-09T11:11:47.226Z,3.37
2022-09-09T11:15:18.885Z,4.05
2022-09-09T11:18:37.330Z,4.35
2022-09-09T11:21:49.712Z,3.27
2022-09-09T11:25:02.596Z,3.37
2022-09-09T11:28:37.256Z,3.80
2022-09-09T11:31:55.423Z,3.65
2022-09-09T11:35:09.886Z,3.80
2022-09-09T11:38:40.571Z,4.28
2022-09-09T11:41:53.133Z,3.92
2022-09-09T11:45:03.001Z,3.75
2022-09-09T11:48:10.674Z,4.05
2022-09-09T11:51:26.006Z,3.67
2022-09-09T11:54:49.391Z,4.33
2022-09-09T11:57:55.291Z,4.03
2022-09-09T12:01:02.829Z,4.58
2022-09-09T12:04:28.066Z,4.12
2022-09-09T12:07:53.015Z,3.58
2022-09-09T12:11:03.189Z,4.08
2022-09-09T12:14:11.491Z,3.80
2022-09-09T12:17:38.180Z,4.00
2022-09-09T12:20:54.570Z,4.20
2022-09-09T12:24:10.225Z,6.17
2022-09-09T12:27:40.503Z,7.28
2022-09-09T12:30:56.068Z,4.10
2022-09-09T12:34:01.688Z,4.10
2022-09-09T12:37:11.414Z,4.20
2022-09-09T12:40:20.798Z,4.03
2022-09-09T12:43:37.205Z,4.50
2022-09-09T12:46:54.549Z,4.65
2022-09-09T12:49:59.007Z,3.17
2022-09-09T12:53:06.474Z,3.75
2022-09-09T12:56:24.094Z,3.47
2022-09-09T12:59:41.626Z,3.30
2022-09-09T13:02:48.172Z,3.77
2022-09-09T13:05:54.218Z,3.75
2022-09-09T13:08:59.555Z,3.60
2022-09-09T13:12:08.485Z,3.70
2022-09-09T13:15:15.178Z,3.75
2022-09-09T13:18:24.815Z,3.15
2022-09-09T13:21:30.934Z,4.00
2022-09-09T13:24:51.591Z,4.05
2022-09-09T13:28:00.361Z,3.60
2022-09-09T13:31:23.926Z,3.95
2022-09-09T13:34:43.047Z,3.35
2022-09-09T13:37:53.684Z,3.70
2022-09-09T13:41:14.937Z,4.10
2022-09-09T13:44:21.356Z,3.22
2022-09-09T13:47:34.910Z,3.45
2022-09-09T13:50:44.792Z,4.20
2022-09-09T13:53:49.881Z,3.80
2022-09-09T13:56:57.869Z,3.52
2022-09-09T14:00:05.476Z,3.83
2022-09-09T14:03:10.717Z,3.85
2022-09-09T14:06:09.231Z,3.72
2022-09-09T14:09:14.546Z,3.47
2022-09-09T14:12:19.508Z,3.65
2022-09-09T14:15:28.244Z,3.95
2022-09-09T14:18:33.782Z,4.00
2022-09-09T14:21:40.561Z,4.20
2022-09-09T14:24:45.267Z,4.03
2022-09-09T14:27:50.735Z,3.65
2022-09-09T14:30:56.574Z,3.77
2022-09-09T14:34:02.829Z,3.42
2022-09-09T14:37:03.061Z,3.67
2022-09-09T14:40:08.449Z,4.22
2022-09-09T14:43:14.674Z,3.75
2022-09-09T14:46:26.445Z,3.62
2022-09-09T14:49:32.166Z,3.70
2022-09-09T14:52:37.247Z,3.60
2022-09-09T14:55:42.966Z,3.22
2022-09-09T14:58:48.676Z,4.83
2022-09-09T15:01:54.024Z,4.33
2022-09-09T15:05:00.163Z,3.52
2022-09-09T15:08:06.719Z,4.08
2022-09-09T15:11:18.575Z,4.30
2022-09-09T15:14:26.017Z,4.53
2022-09-09T15:17:33.263Z,5.08
2022-09-09T15:20:40.391Z,4.65
2022-09-09T15:23:47.428Z,4.72
2022-09-09T15:26:53.638Z,4.95
2022-09-09T15:29:59.579Z,3.95
2022-09-09T15:33:09.640Z,4.35
2022-09-09T15:36:13.278Z,4.03
2022-09-09T15:39:23.262Z,4.70
2022-09-09T15:42:28.858Z,4.55
2022-09-09T15:45:34.916Z,4.40
2022-09-09T15:48:47.315Z,4.72
2022-09-09T15:51:54.485Z,4.40
2022-09-09T15:54:59.923Z,4.97
2022-09-09T15:58:05.768Z,5.40
2022-09-09T16:01:12.752Z,4.90
2022-09-09T16:04:18.101Z,4.55
2022-09-09T16:07:23.993Z,4.90
2022-09-09T16:10:30.318Z,5.05
2022-09-09T16:13:36.614Z,4.78
2022-09-09T16:16:43.301Z,4.65
2022-09-09T16:19:48.788Z,4.78
2022-09-09T16:22:53.832Z,4.42
2022-09-09T16:26:05.551Z,4.17
2022-09-09T16:29:07.869Z,4.95
2022-09-09T16:32:14.089Z,4.03
2022-09-09T16:35:20.474Z,4.58
2022-09-09T16:38:25.761Z,3.75
2022-09-09T16:41:31.520Z,4.15
2022-09-09T16:44:37.929Z,4.05
2022-09-09T16:47:44.423Z,3.60
2022-09-09T16:50:49.799Z,4.22
2022-09-09T16:53:55.404Z,4.30
2022-09-09T16:57:03.817Z,4.40
2022-09-09T17:00:08.899Z,4.15
2022-09-09T17:03:13.961Z,4.10
2022-09-09T17:06:24.975Z,4.28
2022-09-09T17:09:31.761Z,4.90
2022-09-09T17:12:42.006Z,4.53
2022-09-09T17:15:45.022Z,3.77
2022-09-09T17:18:51.539Z,3.85
2022-09-09T17:22:16.292Z,4.03
2022-09-09T17:25:05.475Z,3.58
2022-09-09T17:28:12.522Z,3.90
2022-09-09T17:31:19.594Z,4.33
2022-09-09T17:34:25.769Z,4.08
2022-09-09T17:37:31.078Z,3.80
2022-09-09T17:40:36.588Z,4.20
2022-09-09T17:43:35.194Z,4.42
2022-09-09T17:46:45.077Z,4.50
2022-09-09T17:49:50.144Z,4.20
2022-09-09T17:52:56.811Z,4.22
2022-09-09T17:56:03.874Z,3.95
2022-09-09T17:59:10.830Z,4.00
2022-09-09T18:02:17.218Z,3.80
2022-09-09T18:05:23.688Z,3.85
2022-09-09T18:08:33.504Z,4.00
2022-09-09T18:11:40.069Z,4.10
2022-09-09T18:14:46.826Z,3.47
2022-09-09T18:17:52.061Z,3.37
2022-09-09T18:21:00.433Z,3.72
2022-09-09T18:24:05.508Z,3.83
2022-09-09T18:27:12.050Z,3.70
2022-09-09T18:30:18.317Z,3.17
2022-09-09T18:33:17.152Z,3.60
2022-09-09T18:36:25.496Z,3.20
2022-09-09T18:39:31.680Z,3.35
2022-09-09T18:42:37.294Z,3.75
2022-09-09T18:45:43.153Z,3.00
2022-09-09T18:48:50.817Z,3.22
2022-09-09T18:51:59.417Z,2.70
2022-09-09T18:55:04.922Z,2.72
2022-09-09T18:58:12.028Z,3.17
2022-09-09T19:01:18.114Z,3.25
2022-09-09T19:04:26.305Z,3.12
2022-09-09T19:07:32.397Z,2.83
2022-09-09T19:10:40.992Z,2.50
2022-09-09T19:13:47.344Z,2.30
2022-09-09T19:16:54.951Z,2.27
2022-09-09T19:20:02.511Z,2.70
2022-09-09T19:23:07.524Z,2.15
2022-09-09T19:26:15.548Z,2.30
2022-09-09T19:29:23.251Z,2.58
2022-09-09T19:32:52.137Z,2.17
2022-09-09T19:35:35.801Z,2.15
2022-09-09T19:38:42.376Z,2.27
2022-09-09T19:41:48.520Z,2.75
2022-09-09T19:44:53.103Z,2.35
2022-09-09T19:47:58.866Z,2.58
2022-09-09T19:51:04.382Z,2.70
2022-09-09T19:54:05.594Z,2.30
2022-09-09T19:57:04.537Z,2.60
2022-09-09T20:00:10.680Z,2.35
2022-09-09T20:03:19.665Z,2.30
2022-09-09T20:06:24.341Z,2.75
2022-09-09T20:09:34.027Z,2.22
2022-09-09T20:12:39.863Z,2.40
2022-09-09T20:15:45.219Z,2.55
2022-09-09T20:18:54.124Z,2.12
2022-09-09T20:22:01.102Z,1.85
2022-09-09T20:25:08.174Z,1.90
2022-09-09T20:28:13.328Z,2.02
2022-09-09T20:31:29.009Z,1.98
2022-09-09T20:34:36.485Z,2.30
2022-09-09T20:37:41.420Z,2.22
2022-09-09T20:40:49.110Z,2.05
2022-09-09T20:43:56.440Z,1.98
2022-09-09T20:47:05.154Z,2.60
2022-09-09T20:50:09.956Z,2.12
2022-09-09T20:55:49.053Z,1.77
2022-09-09T20:58:54.838Z,1.57
2022-09-09T21:02:01.236Z,2.02
2022-09-09T21:05:07.781Z,2.12
2022-09-09T21:08:16.558Z,1.57
2022-09-09T21:11:24.249Z,1.80
2022-09-09T21:14:29.894Z,1.75
2022-09-09T21:17:36.039Z,2.00
2022-09-09T21:20:42.977Z,1.70
2022-09-09T21:23:48.653Z,1.52
2022-09-09T21:26:49.853Z,1.47
2022-09-09T21:29:56.470Z,1.90
2022-09-09T21:33:02.800Z,1.77
2022-09-09T21:36:07.917Z,1.70
2022-09-09T21:39:13.584Z,1.70
2022-09-09T21:42:21.396Z,1.90
2022-09-09T21:45:26.968Z,1.85
2022-09-09T21:48:34.591Z,1.80
2022-09-09T21:51:40.337Z,1.77
2022-09-09T21:54:48.335Z,1.70
2022-09-09T21:57:54.798Z,1.85
2022-09-09T22:01:01.681Z,2.02
2022-09-09T22:04:06.922Z,1.87
2022-09-09T22:07:13.541Z,1.45
2022-09-09T22:10:20.174Z,1.80
2022-09-09T22:13:26.562Z,1.72
2022-09-09T22:16:34.264Z,1.45
2022-09-09T22:19:41.534Z,1.80
2022-09-09T22:22:46.382Z,1.60
2022-09-09T22:25:53.627Z,1.55
2022-09-09T22:29:00.907Z,1.98
2022-09-09T22:32:05.894Z,2.05
2022-09-09T22:35:10.318Z,1.67
2022-09-09T22:38:15.726Z,2.12
2022-09-09T22:41:14.653Z,1.75
2022-09-09T22:44:00.791Z,1.75
2022-09-09T22:46:53.630Z,1.87
2022-09-09T22:49:52.824Z,1.72
2022-09-09T22:52:59.033Z,2.02
2022-09-09T22:56:14.463Z,1.98
2022-09-09T22:59:20.016Z,2.00
2022-09-09T23:02:27.372Z,1.70
2022-09-09T23:05:36.161Z,1.87
2022-09-09T23:08:48.134Z,2.22
2022-09-09T23:11:55.104Z,1.95
2022-09-09T23:15:04.075Z,2.17
2022-09-09T23:18:03.656Z,2.20
2022-09-09T23:20:56.837Z,2.22
2022-09-09T23:24:02.513Z,2.10
2022-09-09T23:27:07.974Z,1.70
2022-09-09T23:30:14.411Z,1.75
2022-09-09T23:33:19.550Z,2.12
2022-09-09T23:36:27.357Z,1.92
2022-09-09T23:39:32.504Z,2.10
2022-09-09T23:42:40.151Z,2.35
2022-09-09T23:45:45.505Z,2.02
2022-09-09T23:48:51.308Z,2.58
2022-09-09T23:51:57.211Z,2.67
2022-09-09T23:54:57.750Z,2.37
